sensor_id;sensor_type;location;lat;lon;timestamp;pressure;altitude;pressure_sealevel;temperature;humidity
66524;BME280;53350;52.210;5.160;2022-07-05T00:00:39;102168.22;;;17.09;61.07
66524;BME280;53350;52.210;5.160;2022-07-05T00:03:05;102173.50;;;17.04;61.46
66524;BME280;53350;52.210;5.160;2022-07-05T00:05:32;102167.50;;;17.00;61.50
66524;BME280;53350;52.210;5.160;2022-07-05T00:08:00;102160.59;;;16.98;61.65
66524;BME280;53350;52.210;5.160;2022-07-05T00:10:26;102155.44;;;16.96;61.73
66524;BME280;53350;52.210;5.160;2022-07-05T00:12:53;102155.53;;;16.89;61.73
66524;BME280;53350;52.210;5.160;2022-07-05T00:15:19;102152.16;;;16.83;62.14
66524;BME280;53350;52.210;5.160;2022-07-05T00:17:45;102153.94;;;16.80;62.39
66524;BME280;53350;52.210;5.160;2022-07-05T00:20:12;102160.06;;;16.77;62.75
66524;BME280;53350;52.210;5.160;2022-07-05T00:22:38;102162.66;;;16.79;62.72
66524;BME280;53350;52.210;5.160;2022-07-05T00:25:07;102162.66;;;16.77;62.81
66524;BME280;53350;52.210;5.160;2022-07-05T00:27:33;102160.88;;;16.79;62.03
66524;BME280;53350;52.210;5.160;2022-07-05T00:29:59;102158.25;;;16.81;63.01
66524;BME280;53350;52.210;5.160;2022-07-05T00:32:26;102151.31;;;16.80;63.08
66524;BME280;53350;52.210;5.160;2022-07-05T00:34:52;102159.16;;;16.78;63.36
66524;BME280;53350;52.210;5.160;2022-07-05T00:37:19;102153.13;;;16.76;63.68
66524;BME280;53350;52.210;5.160;2022-07-05T00:39:45;102154.00;;;16.77;63.92
66524;BME280;53350;52.210;5.160;2022-07-05T00:42:13;102148.78;;;16.77;64.00
66524;BME280;53350;52.210;5.160;2022-07-05T00:44:40;102156.53;;;16.80;64.38
66524;BME280;53350;52.210;5.160;2022-07-05T00:47:08;102155.72;;;16.78;64.20
66524;BME280;53350;52.210;5.160;2022-07-05T00:49:36;102154.00;;;16.75;64.33
66524;BME280;53350;52.210;5.160;2022-07-05T00:52:04;102162.72;;;16.73;64.65
66524;BME280;53350;52.210;5.160;2022-07-05T00:54:32;102150.63;;;16.72;64.85
66524;BME280;53350;52.210;5.160;2022-07-05T00:56:59;102158.34;;;16.76;64.56
66524;BME280;53350;52.210;5.160;2022-07-05T00:59:28;102160.91;;;16.78;64.54
66524;BME280;53350;52.210;5.160;2022-07-05T01:01:55;102170.44;;;16.79;64.64
66524;BME280;53350;52.210;5.160;2022-07-05T01:04:21;102163.47;;;16.81;64.72
66524;BME280;53350;52.210;5.160;2022-07-05T01:06:49;102170.41;;;16.82;64.93
66524;BME280;53350;52.210;5.160;2022-07-05T01:09:18;102164.28;;;16.84;65.09
66524;BME280;53350;52.210;5.160;2022-07-05T01:11:47;102158.16;;;16.85;65.34
66524;BME280;53350;52.210;5.160;2022-07-05T01:14:16;102150.34;;;16.87;65.36
66524;BME280;53350;52.210;5.160;2022-07-05T01:16:44;102155.53;;;16.89;65.72
66524;BME280;53350;52.210;5.160;2022-07-05T01:19:12;102156.41;;;16.91;65.68
66524;BME280;53350;52.210;5.160;2022-07-05T01:21:40;102153.75;;;16.92;65.44
66524;BME280;53350;52.210;5.160;2022-07-05T01:24:10;102158.13;;;16.92;65.28
66524;BME280;53350;52.210;5.160;2022-07-05T01:26:38;102150.34;;;16.90;65.58
66524;BME280;53350;52.210;5.160;2022-07-05T01:29:05;102145.13;;;16.89;65.78
66524;BME280;53350;52.210;5.160;2022-07-05T01:31:32;102145.13;;;16.87;65.87
66524;BME280;53350;52.210;5.160;2022-07-05T01:33:58;102143.44;;;16.88;65.80
66524;BME280;53350;52.210;5.160;2022-07-05T01:36:25;102157.31;;;16.88;65.94
66524;BME280;53350;52.210;5.160;2022-07-05T01:38:52;102151.25;;;16.86;65.81
66524;BME280;53350;52.210;5.160;2022-07-05T01:41:20;102159.09;;;16.83;65.65
66524;BME280;53350;52.210;5.160;2022-07-05T01:43:46;102160.84;;;16.81;65.92
66524;BME280;53350;52.210;5.160;2022-07-05T01:46:15;102166.06;;;16.81;65.84
66524;BME280;53350;52.210;5.160;2022-07-05T01:48:42;102164.31;;;16.81;65.93
66524;BME280;53350;52.210;5.160;2022-07-05T01:51:13;102156.50;;;16.83;65.68
66524;BME280;53350;52.210;5.160;2022-07-05T01:53:42;102157.34;;;16.83;65.76
66524;BME280;53350;52.210;5.160;2022-07-05T01:56:10;102164.28;;;16.84;65.87
66524;BME280;53350;52.210;5.160;2022-07-05T01:58:38;102154.72;;;16.85;65.87
66524;BME280;53350;52.210;5.160;2022-07-05T02:01:04;102161.69;;;16.84;66.17
66524;BME280;53350;52.210;5.160;2022-07-05T02:03:31;102167.72;;;16.85;66.10
66524;BME280;53350;52.210;5.160;2022-07-05T02:05:57;102164.28;;;16.84;66.18
66524;BME280;53350;52.210;5.160;2022-07-05T02:08:28;102162.56;;;16.83;65.91
66524;BME280;53350;52.210;5.160;2022-07-05T02:10:55;102159.09;;;16.83;66.06
66524;BME280;53350;52.210;5.160;2022-07-05T02:13:22;102152.22;;;16.79;65.98
66524;BME280;53350;52.210;5.160;2022-07-05T02:15:50;102155.81;;;16.72;65.81
66524;BME280;53350;52.210;5.160;2022-07-05T02:18:17;102162.00;;;16.66;66.01
66524;BME280;53350;52.210;5.160;2022-07-05T02:20:43;102156.00;;;16.59;66.01
66524;BME280;53350;52.210;5.160;2022-07-05T02:23:10;102160.41;;;16.57;66.15
66524;BME280;53350;52.210;5.160;2022-07-05T02:25:36;102153.53;;;16.53;66.19
66524;BME280;53350;52.210;5.160;2022-07-05T02:28:03;102156.16;;;16.51;65.99
66524;BME280;53350;52.210;5.160;2022-07-05T02:30:30;102150.97;;;16.50;65.98
66524;BME280;53350;52.210;5.160;2022-07-05T02:32:58;102150.16;;;16.46;66.05
66524;BME280;53350;52.210;5.160;2022-07-05T02:35:24;102151.97;;;16.43;66.11
66524;BME280;53350;52.210;5.160;2022-07-05T02:37:51;102151.09;;;16.41;65.95
66524;BME280;53350;52.210;5.160;2022-07-05T02:40:17;102146.84;;;16.37;65.81
66524;BME280;53350;52.210;5.160;2022-07-05T02:42:44;102159.03;;;16.33;65.84
66524;BME280;53350;52.210;5.160;2022-07-05T02:45:10;102153.94;;;16.27;65.98
66524;BME280;53350;52.210;5.160;2022-07-05T02:47:37;102160.88;;;16.25;66.01
66524;BME280;53350;52.210;5.160;2022-07-05T02:50:06;102157.44;;;16.23;65.83
66524;BME280;53350;52.210;5.160;2022-07-05T02:52:33;102163.53;;;16.22;66.08
66524;BME280;53350;52.210;5.160;2022-07-05T02:54:59;102168.75;;;16.20;66.12
66524;BME280;53350;52.210;5.160;2022-07-05T02:57:26;102167.03;;;16.19;66.01
66524;BME280;53350;52.210;5.160;2022-07-05T02:59:52;102170.56;;;16.16;66.25
66524;BME280;53350;52.210;5.160;2022-07-05T03:02:19;102169.69;;;16.14;66.20
66524;BME280;53350;52.210;5.160;2022-07-05T03:04:46;102169.72;;;16.13;66.07
66524;BME280;53350;52.210;5.160;2022-07-05T03:07:14;102176.69;;;16.11;66.24
66524;BME280;53350;52.210;5.160;2022-07-05T03:09:40;102171.53;;;16.09;66.04
66524;BME280;53350;52.210;5.160;2022-07-05T03:12:07;102171.56;;;16.06;66.21
66524;BME280;53350;52.210;5.160;2022-07-05T03:14:33;102175.03;;;16.05;66.38
66524;BME280;53350;52.210;5.160;2022-07-05T03:17:00;102176.78;;;16.03;66.55
66524;BME280;53350;52.210;5.160;2022-07-05T03:19:26;102184.56;;;16.03;66.62
66524;BME280;53350;52.210;5.160;2022-07-05T03:21:53;102175.94;;;16.03;66.85
66524;BME280;53350;52.210;5.160;2022-07-05T03:24:21;102177.69;;;16.02;67.04
66524;BME280;53350;52.210;5.160;2022-07-05T03:26:47;102181.09;;;16.06;67.22
66524;BME280;53350;52.210;5.160;2022-07-05T03:29:14;102175.88;;;16.06;67.42
66524;BME280;53350;52.210;5.160;2022-07-05T03:31:40;102182.81;;;16.07;67.28
66524;BME280;53350;52.210;5.160;2022-07-05T03:34:07;102184.50;;;16.09;67.80
66524;BME280;53350;52.210;5.160;2022-07-05T03:36:33;102181.00;;;16.12;67.72
66524;BME280;53350;52.210;5.160;2022-07-05T03:39:00;102180.09;;;16.14;67.82
66524;BME280;53350;52.210;5.160;2022-07-05T03:41:28;102180.06;;;16.16;67.89
66524;BME280;53350;52.210;5.160;2022-07-05T03:43:54;102182.66;;;16.17;67.82
66524;BME280;53350;52.210;5.160;2022-07-05T03:46:21;102187.81;;;16.19;67.72
66524;BME280;53350;52.210;5.160;2022-07-05T03:48:47;102188.72;;;16.18;67.88
66524;BME280;53350;52.210;5.160;2022-07-05T03:51:14;102193.03;;;16.17;67.99
66524;BME280;53350;52.210;5.160;2022-07-05T03:53:40;102191.38;;;16.15;68.65
66524;BME280;53350;52.210;5.160;2022-07-05T03:56:07;102187.03;;;16.15;68.44
66524;BME280;53350;52.210;5.160;2022-07-05T03:58:35;102188.75;;;16.16;68.48
66524;BME280;53350;52.210;5.160;2022-07-05T04:01:02;102192.16;;;16.19;68.40
66524;BME280;53350;52.210;5.160;2022-07-05T04:03:28;102191.28;;;16.21;68.55
66524;BME280;53350;52.210;5.160;2022-07-05T04:05:55;102195.56;;;16.25;68.69
66524;BME280;53350;52.210;5.160;2022-07-05T04:08:21;102192.94;;;16.27;68.80
66524;BME280;53350;52.210;5.160;2022-07-05T04:10:47;102193.75;;;16.29;68.93
66524;BME280;53350;52.210;5.160;2022-07-05T04:13:14;102196.31;;;16.32;69.16
66524;BME280;53350;52.210;5.160;2022-07-05T04:15:42;102195.34;;;16.39;69.18
66524;BME280;53350;52.210;5.160;2022-07-05T04:18:08;102191.84;;;16.42;69.09
66524;BME280;53350;52.210;5.160;2022-07-05T04:20:34;102201.34;;;16.44;69.21
66524;BME280;53350;52.210;5.160;2022-07-05T04:23:01;102203.03;;;16.48;69.28
66524;BME280;53350;52.210;5.160;2022-07-05T04:25:27;102196.00;;;16.52;69.35
66524;BME280;53350;52.210;5.160;2022-07-05T04:27:54;102195.97;;;16.55;69.18
66524;BME280;53350;52.210;5.160;2022-07-05T04:30:22;102195.06;;;16.58;69.49
66524;BME280;53350;52.210;5.160;2022-07-05T04:32:50;102201.91;;;16.63;69.50
66524;BME280;53350;52.210;5.160;2022-07-05T04:35:16;102194.88;;;16.70;68.33
66524;BME280;53350;52.210;5.160;2022-07-05T04:37:43;102199.97;;;16.76;69.21
66524;BME280;53350;52.210;5.160;2022-07-05T04:40:12;102190.34;;;16.81;69.11
66524;BME280;53350;52.210;5.160;2022-07-05T04:42:39;102201.53;;;16.86;69.13
66524;BME280;53350;52.210;5.160;2022-07-05T04:45:06;102195.47;;;16.89;69.32
66524;BME280;53350;52.210;5.160;2022-07-05T04:47:33;102196.22;;;16.94;69.36
66524;BME280;53350;52.210;5.160;2022-07-05T04:50:03;102203.09;;;16.98;69.11
66524;BME280;53350;52.210;5.160;2022-07-05T04:52:30;102199.63;;;16.99;69.18
66524;BME280;53350;52.210;5.160;2022-07-05T04:54:57;102197.84;;;17.01;69.29
66524;BME280;53350;52.210;5.160;2022-07-05T04:57:23;102197.78;;;17.04;69.42
66524;BME280;53350;52.210;5.160;2022-07-05T04:59:50;102193.34;;;17.11;69.52
66524;BME280;53350;52.210;5.160;2022-07-05T05:02:16;102194.91;;;17.20;69.63
66524;BME280;53350;52.210;5.160;2022-07-05T05:04:42;102200.00;;;17.26;69.30
66524;BME280;53350;52.210;5.160;2022-07-05T05:07:10;102192.97;;;17.31;69.01
66524;BME280;53350;52.210;5.160;2022-07-05T05:09:38;102197.22;;;17.37;69.03
66524;BME280;53350;52.210;5.160;2022-07-05T05:12:05;102203.16;;;17.42;69.01
66524;BME280;53350;52.210;5.160;2022-07-05T05:14:31;102200.44;;;17.50;68.89
66524;BME280;53350;52.210;5.160;2022-07-05T05:16:58;102196.69;;;17.63;69.21
66524;BME280;53350;52.210;5.160;2022-07-05T05:19:24;102201.47;;;17.85;69.21
66524;BME280;53350;52.210;5.160;2022-07-05T05:21:50;102201.75;;;18.13;68.94
66524;BME280;53350;52.210;5.160;2022-07-05T05:24:18;102207.16;;;18.43;68.19
66524;BME280;53350;52.210;5.160;2022-07-05T05:26:45;102202.28;;;18.65;67.51
66524;BME280;53350;52.210;5.160;2022-07-05T05:29:12;102196.75;;;18.79;66.97
66524;BME280;53350;52.210;5.160;2022-07-05T05:31:39;102204.41;;;18.87;66.51
66524;BME280;53350;52.210;5.160;2022-07-05T05:34:05;102203.44;;;18.91;66.37
66524;BME280;53350;52.210;5.160;2022-07-05T05:36:31;102204.06;;;19.01;66.32
66524;BME280;53350;52.210;5.160;2022-07-05T05:38:58;102208.06;;;19.14;65.97
66524;BME280;53350;52.210;5.160;2022-07-05T05:41:26;102210.22;;;19.31;65.94
66524;BME280;53350;52.210;5.160;2022-07-05T05:43:52;102220.03;;;19.54;65.53
66524;BME280;53350;52.210;5.160;2022-07-05T05:46:19;102218.69;;;19.71;64.59
66524;BME280;53350;52.210;5.160;2022-07-05T05:48:45;102217.47;;;19.84;64.51
66524;BME280;53350;52.210;5.160;2022-07-05T05:51:11;102227.47;;;20.00;64.21
66524;BME280;53350;52.210;5.160;2022-07-05T05:53:38;102221.84;;;20.13;64.05
66524;BME280;53350;52.210;5.160;2022-07-05T05:56:05;102220.63;;;20.25;63.52
66524;BME280;53350;52.210;5.160;2022-07-05T05:58:32;102219.41;;;20.36;62.94
66524;BME280;53350;52.210;5.160;2022-07-05T06:00:59;102218.31;;;20.43;63.02
66524;BME280;53350;52.210;5.160;2022-07-05T06:03:26;102220.69;;;20.50;62.93
66524;BME280;53350;52.210;5.160;2022-07-05T06:05:53;102223.13;;;20.57;63.00
66524;BME280;53350;52.210;5.160;2022-07-05T06:08:20;102217.75;;;20.61;62.80
66524;BME280;53350;52.210;5.160;2022-07-05T06:10:47;102219.22;;;20.70;62.48
66524;BME280;53350;52.210;5.160;2022-07-05T06:13:13;102221.53;;;20.79;61.83
66524;BME280;53350;52.210;5.160;2022-07-05T06:15:42;102220.63;;;20.80;61.13
66524;BME280;53350;52.210;5.160;2022-07-05T06:18:10;102222.09;;;20.89;60.84
66524;BME280;53350;52.210;5.160;2022-07-05T06:20:38;102230.59;;;20.96;60.06
66524;BME280;53350;52.210;5.160;2022-07-05T06:23:05;102230.66;;;20.94;58.92
66524;BME280;53350;52.210;5.160;2022-07-05T06:25:32;102238.53;;;20.93;58.07
66524;BME280;53350;52.210;5.160;2022-07-05T06:28:00;102240.31;;;20.92;57.00
66524;BME280;53350;52.210;5.160;2022-07-05T06:30:28;102237.06;;;20.86;56.53
66524;BME280;53350;52.210;5.160;2022-07-05T06:32:56;102236.28;;;20.82;55.77
66524;BME280;53350;52.210;5.160;2022-07-05T06:35:23;102245.09;;;20.79;56.04
66524;BME280;53350;52.210;5.160;2022-07-05T06:37:51;102241.69;;;20.77;55.55
66524;BME280;53350;52.210;5.160;2022-07-05T06:40:19;102242.53;;;20.78;55.47
66524;BME280;53350;52.210;5.160;2022-07-05T06:42:46;102246.81;;;20.80;54.99
66524;BME280;53350;52.210;5.160;2022-07-05T06:45:12;102250.22;;;20.82;54.71
66524;BME280;53350;52.210;5.160;2022-07-05T06:47:39;102253.69;;;20.84;54.04
66524;BME280;53350;52.210;5.160;2022-07-05T06:50:07;102252.81;;;20.84;53.61
66524;BME280;53350;52.210;5.160;2022-07-05T06:52:36;102259.81;;;20.83;53.83
66524;BME280;53350;52.210;5.160;2022-07-05T06:55:03;102252.00;;;20.82;54.52
66524;BME280;53350;52.210;5.160;2022-07-05T06:57:30;102267.78;;;20.80;54.74
66524;BME280;53350;52.210;5.160;2022-07-05T06:59:56;102259.88;;;20.82;54.77
66524;BME280;53350;52.210;5.160;2022-07-05T07:02:23;102266.81;;;20.83;55.36
66524;BME280;53350;52.210;5.160;2022-07-05T07:04:49;102264.00;;;20.89;55.91
66524;BME280;53350;52.210;5.160;2022-07-05T07:07:17;102263.72;;;20.97;55.37
66524;BME280;53350;52.210;5.160;2022-07-05T07:10:02;102255.88;;;20.97;55.32
66524;BME280;53350;52.210;5.160;2022-07-05T07:12:29;102267.84;;;21.04;55.28
66524;BME280;53350;52.210;5.160;2022-07-05T07:14:56;102267.63;;;21.12;54.74
66524;BME280;53350;52.210;5.160;2022-07-05T07:17:22;102269.19;;;21.17;54.32
66524;BME280;53350;52.210;5.160;2022-07-05T07:19:49;102258.59;;;21.21;54.51
66524;BME280;53350;52.210;5.160;2022-07-05T07:22:15;102267.13;;;21.26;54.58
66524;BME280;53350;52.210;5.160;2022-07-05T07:24:43;102261.66;;;21.32;54.26
66524;BME280;53350;52.210;5.160;2022-07-05T07:27:09;102271.03;;;21.39;54.04
66524;BME280;53350;52.210;5.160;2022-07-05T07:29:37;102269.16;;;21.43;53.51
66524;BME280;53350;52.210;5.160;2022-07-05T07:32:06;102266.44;;;21.46;52.92
66524;BME280;53350;52.210;5.160;2022-07-05T07:34:33;102267.19;;;21.51;53.03
66524;BME280;53350;52.210;5.160;2022-07-05T07:36:59;102265.28;;;21.54;52.66
66524;BME280;53350;52.210;5.160;2022-07-05T07:39:26;102269.44;;;21.60;52.81
66524;BME280;53350;52.210;5.160;2022-07-05T07:41:54;102278.88;;;21.66;52.87
66524;BME280;53350;52.210;5.160;2022-07-05T07:44:21;102276.06;;;21.70;52.65
66524;BME280;53350;52.210;5.160;2022-07-05T07:46:47;102272.03;;;21.85;51.96
66524;BME280;53350;52.210;5.160;2022-07-05T07:49:14;102278.50;;;22.00;50.71
66524;BME280;53350;52.210;5.160;2022-07-05T07:51:40;102275.81;;;22.02;51.00
66524;BME280;53350;52.210;5.160;2022-07-05T07:54:07;102278.44;;;22.02;50.86
66524;BME280;53350;52.210;5.160;2022-07-05T07:56:33;102275.91;;;21.99;50.62
66524;BME280;53350;52.210;5.160;2022-07-05T07:59:01;102264.91;;;21.89;51.17
66524;BME280;53350;52.210;5.160;2022-07-05T08:01:27;102269.38;;;21.87;50.68
66524;BME280;53350;52.210;5.160;2022-07-05T08:03:54;102281.72;;;21.83;51.14
66524;BME280;53350;52.210;5.160;2022-07-05T08:06:20;102285.31;;;21.81;51.02
66524;BME280;53350;52.210;5.160;2022-07-05T08:08:47;102280.81;;;21.84;50.86
66524;BME280;53350;52.210;5.160;2022-07-05T08:11:14;102277.84;;;21.94;50.42
66524;BME280;53350;52.210;5.160;2022-07-05T08:13:41;102282.91;;;21.98;50.22
66524;BME280;53350;52.210;5.160;2022-07-05T08:16:10;102281.13;;;22.00;50.35
66524;BME280;53350;52.210;5.160;2022-07-05T08:18:36;102279.56;;;21.95;49.37
66524;BME280;53350;52.210;5.160;2022-07-05T08:21:21;102286.75;;;21.89;49.75
66524;BME280;53350;52.210;5.160;2022-07-05T08:24:04;102290.25;;;21.90;49.88
66524;BME280;53350;52.210;5.160;2022-07-05T08:26:31;102289.81;;;22.01;50.01
66524;BME280;53350;52.210;5.160;2022-07-05T08:28:58;102286.56;;;22.18;49.71
66524;BME280;53350;52.210;5.160;2022-07-05T08:31:27;102284.06;;;22.38;49.21
66524;BME280;53350;52.210;5.160;2022-07-05T08:33:53;102287.63;;;22.60;48.02
66524;BME280;53350;52.210;5.160;2022-07-05T08:36:21;102280.81;;;22.76;47.33
66524;BME280;53350;52.210;5.160;2022-07-05T08:38:48;102276.63;;;22.92;46.31
66524;BME280;53350;52.210;5.160;2022-07-05T08:41:17;102280.78;;;22.98;46.31
66524;BME280;53350;52.210;5.160;2022-07-05T08:43:45;102279.88;;;22.99;46.14
66524;BME280;53350;52.210;5.160;2022-07-05T08:46:12;102281.59;;;23.00;45.98
66524;BME280;53350;52.210;5.160;2022-07-05T08:48:42;102284.50;;;22.92;45.80
66524;BME280;53350;52.210;5.160;2022-07-05T08:51:11;102276.97;;;22.85;46.58
66524;BME280;53350;52.210;5.160;2022-07-05T08:53:38;102279.94;;;22.98;46.04
66524;BME280;53350;52.210;5.160;2022-07-05T08:56:06;102276.91;;;23.07;45.84
66524;BME280;53350;52.210;5.160;2022-07-05T08:58:33;102278.25;;;23.17;45.69
66524;BME280;53350;52.210;5.160;2022-07-05T09:01:00;102284.59;;;23.34;45.21
66524;BME280;53350;52.210;5.160;2022-07-05T09:03:32;102276.94;;;23.48;44.54
66524;BME280;53350;52.210;5.160;2022-07-05T09:06:01;102276.00;;;23.70;44.05
66524;BME280;53350;52.210;5.160;2022-07-05T09:08:30;102273.75;;;23.81;43.87
66524;BME280;53350;52.210;5.160;2022-07-05T09:10:59;102277.69;;;23.91;43.59
66524;BME280;53350;52.210;5.160;2022-07-05T09:13:27;102276.34;;;24.02;42.78
66524;BME280;53350;52.210;5.160;2022-07-05T09:15:53;102277.69;;;24.10;42.24
66524;BME280;53350;52.210;5.160;2022-07-05T09:18:44;102284.22;;;24.02;42.42
66524;BME280;53350;52.210;5.160;2022-07-05T09:21:16;102291.31;;;24.00;42.54
66524;BME280;53350;52.210;5.160;2022-07-05T09:23:43;102289.91;;;23.92;42.63
66524;BME280;53350;52.210;5.160;2022-07-05T09:26:10;102298.75;;;23.91;43.31
66524;BME280;53350;52.210;5.160;2022-07-05T09:28:36;102298.19;;;23.83;43.63
66524;BME280;53350;52.210;5.160;2022-07-05T09:31:03;102303.34;;;23.66;43.29
66524;BME280;53350;52.210;5.160;2022-07-05T09:33:29;102295.56;;;23.43;43.78
66524;BME280;53350;52.210;5.160;2022-07-05T09:35:57;102295.31;;;23.29;43.78
66524;BME280;53350;52.210;5.160;2022-07-05T09:38:26;102299.81;;;23.25;43.91
66524;BME280;53350;52.210;5.160;2022-07-05T09:40:53;102299.44;;;23.35;43.42
66524;BME280;53350;52.210;5.160;2022-07-05T09:43:21;102294.44;;;23.49;42.93
66524;BME280;53350;52.210;5.160;2022-07-05T09:45:56;102290.66;;;23.55;43.38
66524;BME280;53350;52.210;5.160;2022-07-05T09:48:24;102296.38;;;23.65;42.36
66524;BME280;53350;52.210;5.160;2022-07-05T09:50:50;102301.63;;;23.65;42.14
66524;BME280;53350;52.210;5.160;2022-07-05T09:53:17;102300.94;;;23.61;42.82
66524;BME280;53350;52.210;5.160;2022-07-05T09:55:59;102301.78;;;23.61;43.05
66524;BME280;53350;52.210;5.160;2022-07-05T09:58:26;102300.97;;;23.80;42.44
66524;BME280;53350;52.210;5.160;2022-07-05T10:00:53;102303.72;;;23.98;41.80
66524;BME280;53350;52.210;5.160;2022-07-05T10:03:19;102305.63;;;23.94;42.05
66524;BME280;53350;52.210;5.160;2022-07-05T10:05:45;102306.97;;;24.03;41.48
66524;BME280;53350;52.210;5.160;2022-07-05T10:08:12;102313.88;;;24.05;41.83
66524;BME280;53350;52.210;5.160;2022-07-05T10:10:41;102318.53;;;24.00;41.73
66524;BME280;53350;52.210;5.160;2022-07-05T10:13:09;102311.63;;;23.98;41.75
66524;BME280;53350;52.210;5.160;2022-07-05T10:15:36;102321.56;;;23.91;42.09
66524;BME280;53350;52.210;5.160;2022-07-05T10:18:04;102313.97;;;24.04;42.13
66524;BME280;53350;52.210;5.160;2022-07-05T10:20:34;102312.91;;;24.08;42.02
66524;BME280;53350;52.210;5.160;2022-07-05T10:23:07;102309.13;;;24.13;41.60
66524;BME280;53350;52.210;5.160;2022-07-05T10:25:35;102298.59;;;24.33;41.27
66524;BME280;53350;52.210;5.160;2022-07-05T10:28:03;102305.88;;;24.27;42.06
66524;BME280;53350;52.210;5.160;2022-07-05T10:30:31;102306.50;;;24.13;42.10
66524;BME280;53350;52.210;5.160;2022-07-05T10:33:01;102298.75;;;24.10;42.18
66524;BME280;53350;52.210;5.160;2022-07-05T10:35:27;102311.69;;;24.15;41.85
66524;BME280;53350;52.210;5.160;2022-07-05T10:37:54;102305.72;;;24.30;41.27
66524;BME280;53350;52.210;5.160;2022-07-05T10:40:22;102308.56;;;24.45;40.73
66524;BME280;53350;52.210;5.160;2022-07-05T10:42:50;102313.69;;;24.29;39.84
66524;BME280;53350;52.210;5.160;2022-07-05T10:45:32;102310.63;;;24.19;40.16
66524;BME280;53350;52.210;5.160;2022-07-05T10:48:18;102321.16;;;24.00;40.29
66524;BME280;53350;52.210;5.160;2022-07-05T10:50:47;102326.88;;;23.89;41.41
66524;BME280;53350;52.210;5.160;2022-07-05T10:53:15;102316.16;;;23.94;42.05
66524;BME280;53350;52.210;5.160;2022-07-05T10:55:47;102319.88;;;24.09;42.33
66524;BME280;53350;52.210;5.160;2022-07-05T10:58:21;102328.63;;;24.09;40.88
66524;BME280;53350;52.210;5.160;2022-07-05T11:01:31;102332.06;;;23.91;41.60
66524;BME280;53350;52.210;5.160;2022-07-05T11:04:11;102327.56;;;23.74;42.46
66524;BME280;53350;52.210;5.160;2022-07-05T11:06:41;102320.72;;;23.70;42.29
66524;BME280;53350;52.210;5.160;2022-07-05T11:09:15;102328.25;;;23.77;42.22
66524;BME280;53350;52.210;5.160;2022-07-05T11:11:43;102303.50;;;23.63;42.21
66524;BME280;53350;52.210;5.160;2022-07-05T11:17:13;102330.44;;;23.68;42.33
66524;BME280;53350;52.210;5.160;2022-07-05T11:20:04;102338.09;;;23.74;42.60
66524;BME280;53350;52.210;5.160;2022-07-05T11:22:33;102337.56;;;23.86;41.47
66524;BME280;53350;52.210;5.160;2022-07-05T11:25:00;102338.06;;;23.94;40.44
66524;BME280;53350;52.210;5.160;2022-07-05T11:27:26;102334.03;;;24.06;39.73
66524;BME280;53350;52.210;5.160;2022-07-05T11:29:54;102332.38;;;24.23;39.18
66524;BME280;53350;52.210;5.160;2022-07-05T11:32:23;102335.69;;;24.28;39.07
66524;BME280;53350;52.210;5.160;2022-07-05T11:34:51;102339.38;;;24.24;39.76
66524;BME280;53350;52.210;5.160;2022-07-05T11:37:19;102333.03;;;24.28;39.41
66524;BME280;53350;52.210;5.160;2022-07-05T11:40:28;102338.22;;;24.29;38.94
66524;BME280;53350;52.210;5.160;2022-07-05T11:42:55;102332.38;;;24.23;38.69
66524;BME280;53350;52.210;5.160;2022-07-05T11:45:21;102339.00;;;24.31;38.85
66524;BME280;53350;52.210;5.160;2022-07-05T11:47:50;102332.06;;;24.30;38.07
66524;BME280;53350;52.210;5.160;2022-07-05T11:50:25;102341.94;;;24.25;38.84
66524;BME280;53350;52.210;5.160;2022-07-05T11:52:52;102330.97;;;24.16;38.73
66524;BME280;53350;52.210;5.160;2022-07-05T11:55:18;102340.78;;;24.12;38.06
66524;BME280;53350;52.210;5.160;2022-07-05T11:57:48;102333.19;;;24.06;38.70
66524;BME280;53350;52.210;5.160;2022-07-05T12:00:25;102330.34;;;24.10;38.28
66524;BME280;53350;52.210;5.160;2022-07-05T12:02:54;102327.03;;;24.24;37.54
66524;BME280;53350;52.210;5.160;2022-07-05T12:05:21;102326.78;;;24.30;37.82
66524;BME280;53350;52.210;5.160;2022-07-05T12:07:51;102316.88;;;24.36;38.02
66524;BME280;53350;52.210;5.160;2022-07-05T12:10:19;102338.81;;;24.36;37.65
66524;BME280;53350;52.210;5.160;2022-07-05T12:13:04;102332.44;;;24.40;37.26
66524;BME280;53350;52.210;5.160;2022-07-05T12:15:31;102329.13;;;24.37;37.04
66524;BME280;53350;52.210;5.160;2022-07-05T12:18:00;102330.09;;;24.34;37.08
66524;BME280;53350;52.210;5.160;2022-07-05T12:20:30;102340.13;;;24.26;36.07
66524;BME280;53350;52.210;5.160;2022-07-05T12:22:57;102327.78;;;24.09;36.49
66524;BME280;53350;52.210;5.160;2022-07-05T12:25:25;102327.78;;;24.09;37.32
66524;BME280;53350;52.210;5.160;2022-07-05T12:27:55;102333.44;;;24.19;37.48
66524;BME280;53350;52.210;5.160;2022-07-05T12:30:22;102328.19;;;24.38;37.96
66524;BME280;53350;52.210;5.160;2022-07-05T12:32:54;102335.72;;;24.45;37.43
66524;BME280;53350;52.210;5.160;2022-07-05T12:35:28;102332.88;;;24.50;37.51
66524;BME280;53350;52.210;5.160;2022-07-05T12:37:55;102329.31;;;24.51;36.13
66524;BME280;53350;52.210;5.160;2022-07-05T12:40:23;102338.22;;;24.48;36.25
66524;BME280;53350;52.210;5.160;2022-07-05T12:43:00;102331.53;;;24.41;36.19
66524;BME280;53350;52.210;5.160;2022-07-05T12:45:27;102339.59;;;24.38;35.62
66524;BME280;53350;52.210;5.160;2022-07-05T12:47:54;102333.97;;;24.27;36.03
66524;BME280;53350;52.210;5.160;2022-07-05T12:50:21;102342.50;;;24.13;36.04
66524;BME280;53350;52.210;5.160;2022-07-05T12:53:01;102339.66;;;23.99;36.03
66524;BME280;53350;52.210;5.160;2022-07-05T12:55:50;102331.75;;;23.99;36.34
66524;BME280;53350;52.210;5.160;2022-07-05T12:58:45;102334.38;;;23.99;35.88